Ghotki Weather



Ghotki's Current Weather

Temprature 31.3o clear sky

clear sky

Rain: 0 %

Min Temprature31.3o
Max Temprature31.3o
Humidity40
Wind Speed8.85 m/h
Sun Rise05:29:10
Sun Set19:10:15
Current Time: 24-May-2022 07:37:32
Lat/Lon: 28.006, 69.3161




Ghotki's Geo Location



Ghotki's Weather Forecast

Time Overall Temp Min Temp Max Temp Humidity Wind Speed Rain
24-May-2022 (Tue)
08:00:00 clear sky 31.300 31.300 31.300 40 8.85 m/h 0 %
11:00:00 clear sky 33.550 33.550 38.050 34 6.68 m/h 0 %
14:00:00 clear sky 38.490 38.490 42.080 22 4.86 m/h 0 %
17:00:00 clear sky 42.490 42.490 42.490 11 3.82 m/h 0 %
20:00:00 clear sky 37.860 37.860 37.860 14 3.38 m/h 0 %
23:00:00 clear sky 35.120 35.120 35.120 19 4.03 m/h 0 %
25-May-2022 (Wed)
02:00:00 clear sky 32.960 32.960 32.960 20 4.1 m/h 0 %
05:00:00 clear sky 30.830 30.830 30.830 21 3.91 m/h 0 %
08:00:00 clear sky 34.160 34.160 34.160 24 4.86 m/h 0 %
11:00:00 clear sky 41.070 41.070 41.070 17 3.36 m/h 0 %
14:00:00 clear sky 44.400 44.400 44.400 9 0.89 m/h 0 %
17:00:00 clear sky 44.900 44.900 44.900 8 2.47 m/h 0 %
20:00:00 clear sky 40.450 40.450 40.450 9 3.58 m/h 0 %
23:00:00 clear sky 36.370 36.370 36.370 28 7.29 m/h 0 %
26-May-2022 (Thu)
02:00:00 clear sky 32.510 32.510 32.510 44 5.76 m/h 0 %
05:00:00 clear sky 30.610 30.610 30.610 53 4.87 m/h 0 %
08:00:00 clear sky 34.450 34.450 34.450 41 5.2 m/h 0 %
11:00:00 clear sky 42.200 42.200 42.200 21 6.25 m/h 0 %
14:00:00 clear sky 46.580 46.580 46.580 13 5.65 m/h 0 %
17:00:00 clear sky 46.900 46.900 46.900 10 5.33 m/h 0 %
20:00:00 clear sky 41.520 41.520 41.520 16 7.67 m/h 0 %
23:00:00 clear sky 33.880 33.880 33.880 45 9.24 m/h 0 %
27-May-2022 (Fri)
02:00:00 clear sky 30.300 30.300 30.300 58 7.69 m/h 0 %
05:00:00 clear sky 28.990 28.990 28.990 64 5.31 m/h 0 %
08:00:00 clear sky 32.860 32.860 32.860 49 5.56 m/h 0 %
11:00:00 clear sky 41.830 41.830 41.830 22 3.13 m/h 0 %
14:00:00 clear sky 48.980 48.980 48.980 6 3.82 m/h 0 %
17:00:00 clear sky 49.210 49.210 49.210 3 4.76 m/h 0 %
20:00:00 clear sky 42.640 42.640 42.640 4 4.49 m/h 0 %
23:00:00 clear sky 39.890 39.890 39.890 7 3.98 m/h 0 %
28-May-2022 (Sat)
02:00:00 clear sky 34.820 34.820 34.820 20 3.37 m/h 0 %
05:00:00 clear sky 36.110 36.110 36.110 6 5.15 m/h 0 %
08:00:00 clear sky 40.870 40.870 40.870 4 7.37 m/h 0 %
11:00:00 clear sky 46.260 46.260 46.260 2 10.09 m/h 0 %
14:00:00 clear sky 48.030 48.030 48.030 1 11.45 m/h 0 %
17:00:00 clear sky 47.220 47.220 47.220 2 12.21 m/h 0 %
20:00:00 clear sky 41.670 41.670 41.670 3 7.76 m/h 0 %
23:00:00 clear sky 39.710 39.710 39.710 3 8.56 m/h 0 %
29-May-2022 (Sun)
02:00:00 clear sky 35.140 35.140 35.140 4 5.67 m/h 0 %
05:00:00 clear sky 31.650 31.650 31.650 6 4.54 m/h 0 %

Famous Cities (61)